YXU weather

London Airport
London, Ontario, Canada

Public forecast

Using degrees Celsius for public forecast. Weather courtesy of forecast.io.

METAR (pilot weather report)

Retrieved 2019/03/20 13:00 UTC (48 minutes ago):

CYXU 201300Z 20008KT 15SM FEW120 02/M03 A3020 RMK AC1 SLP240

TAF (pilot weather forecast)

Retrieved 2019/03/20 12:42 UTC (1 hour ago):

TAF TAF CYXU 201138Z 2012/2112 18005KT P6SM FEW120 FM201500 20012KT P6SM FEW050 BKN120 FM202100 20010KT 6SM -RA BR SCT040 OVC070 FM210100 15007KT 3SM -RA BR BKN012 OVC025 PROB40 2104/2110 11/2SM -RA BR FM211000 16008KT 11/2SM -RA -DZ BR OVC008 RMK NXT FCST BY 201800Z